createdAt,value
2017-11-26T00:01:05.398Z,6.68
2017-11-26T00:03:41.985Z,6.67
2017-11-26T00:06:14.986Z,6.63
2017-11-26T00:08:58.596Z,6.61
2017-11-26T00:11:32.891Z,6.61
2017-11-26T00:14:08.816Z,6.63
2017-11-26T00:16:41.986Z,6.49
2017-11-26T00:19:19.403Z,6.58
2017-11-26T00:21:52.893Z,6.64
2017-11-26T00:24:27.494Z,6.59
2017-11-26T00:27:01.102Z,6.65
2017-11-26T00:29:34.293Z,6.57
2017-11-26T00:32:08.992Z,6.65
2017-11-26T00:34:44.076Z,6.53
2017-11-26T00:37:19.273Z,6.58
2017-11-26T00:39:51.775Z,6.54
2017-11-26T00:42:24.471Z,6.54
2017-11-26T00:44:59.081Z,6.69
2017-11-26T00:47:34.149Z,6.74
2017-11-26T00:50:07.283Z,6.71
2017-11-26T00:52:43.592Z,6.78
2017-11-26T00:55:22.102Z,6.86
2017-11-26T00:57:55.000Z,6.68
2017-11-26T01:00:29.709Z,6.65
2017-11-26T01:03:02.817Z,6.67
2017-11-26T01:05:37.218Z,6.59
2017-11-26T01:08:11.572Z,6.52
2017-11-26T01:10:44.836Z,6.50
2017-11-26T01:13:28.946Z,6.53
2017-11-26T01:16:01.962Z,6.64
2017-11-26T01:18:35.549Z,6.57
2017-11-26T01:21:10.481Z,6.43
2017-11-26T01:23:42.462Z,6.46
2017-11-26T01:26:17.159Z,6.51
2017-11-26T01:28:49.262Z,6.50
2017-11-26T01:31:22.466Z,6.47
2017-11-26T01:33:56.845Z,6.58
2017-11-26T01:36:28.651Z,6.67
2017-11-26T01:39:02.676Z,6.75
2017-11-26T01:41:35.344Z,6.71
2017-11-26T01:44:07.450Z,6.59
2017-11-26T01:46:42.252Z,6.56
2017-11-26T01:49:22.649Z,6.69
2017-11-26T01:51:56.053Z,6.78
2017-11-26T01:54:28.649Z,6.78
2017-11-26T01:57:02.859Z,6.81
2017-11-26T01:59:39.792Z,6.80
2017-11-26T02:02:20.185Z,6.61
2017-11-26T02:04:56.660Z,6.71
2017-11-26T02:07:32.422Z,6.77
2017-11-26T02:12:52.230Z,6.67
2017-11-26T02:15:26.332Z,6.79
2017-11-26T02:18:01.843Z,6.89
2017-11-26T02:20:34.176Z,6.87
2017-11-26T02:23:10.238Z,6.90
2017-11-26T02:25:44.338Z,7.06
2017-11-26T02:28:28.641Z,7.13
2017-11-26T02:31:02.033Z,7.27
2017-11-26T02:35:56.226Z,7.10
2017-11-26T02:38:29.827Z,7.18
2017-11-26T02:41:02.442Z,7.28
2017-11-26T02:43:39.266Z,7.29
2017-11-26T02:46:18.656Z,7.34
2017-11-26T02:48:58.361Z,7.09
2017-11-26T02:51:33.429Z,7.07
2017-11-26T02:54:05.923Z,6.91
2017-11-26T02:56:40.968Z,7.13
2017-11-26T02:59:18.570Z,6.98
2017-11-26T03:01:54.394Z,6.96
2017-11-26T03:04:26.981Z,7.07
2017-11-26T03:06:59.580Z,7.01
2017-11-26T03:09:34.188Z,6.91
2017-11-26T03:12:11.994Z,6.89
2017-11-26T03:14:46.722Z,6.74
2017-11-26T03:17:21.298Z,6.80
2017-11-26T03:19:54.375Z,6.87
2017-11-26T03:22:27.771Z,6.81
2017-11-26T03:27:45.573Z,6.84
2017-11-26T03:30:24.096Z,6.92
2017-11-26T03:32:57.375Z,6.98
2017-11-26T03:35:33.084Z,6.94
2017-11-26T03:38:12.972Z,7.02
2017-11-26T03:40:46.684Z,6.87
2017-11-26T03:43:19.576Z,6.89
2017-11-26T03:45:54.891Z,6.86
2017-11-26T03:48:27.591Z,6.66
2017-11-26T03:51:01.413Z,6.85
2017-11-26T03:53:38.201Z,6.69
2017-11-26T03:56:13.592Z,6.62
2017-11-26T03:58:47.818Z,6.66
2017-11-26T04:01:20.615Z,6.63
2017-11-26T04:03:53.611Z,6.56
2017-11-26T04:06:26.225Z,6.57
2017-11-26T04:09:13.745Z,6.62
2017-11-26T04:11:46.823Z,6.58
2017-11-26T04:14:26.241Z,6.56
2017-11-26T04:17:00.926Z,6.59
2017-11-26T04:19:44.742Z,6.59
2017-11-26T04:22:23.920Z,6.52
2017-11-26T04:24:58.109Z,6.39
2017-11-26T04:27:37.116Z,6.51
2017-11-26T04:30:24.506Z,6.43
2017-11-26T04:32:58.914Z,6.33
2017-11-26T04:35:32.408Z,6.45
2017-11-26T04:38:06.323Z,6.46
2017-11-26T04:40:40.508Z,6.57
2017-11-26T04:43:13.802Z,6.56
2017-11-26T04:45:46.919Z,6.52
2017-11-26T04:48:22.101Z,6.36
2017-11-26T04:50:57.012Z,6.41
2017-11-26T04:53:34.212Z,6.32
2017-11-26T04:56:09.870Z,6.43
2017-11-26T04:58:43.196Z,6.36
2017-11-26T05:01:26.305Z,6.43
2017-11-26T05:03:58.910Z,6.57
2017-11-26T05:06:35.501Z,6.47
2017-11-26T05:11:50.006Z,6.39
2017-11-26T05:14:22.002Z,6.36
2017-11-26T05:16:57.072Z,6.42
2017-11-26T05:19:30.219Z,6.50
2017-11-26T05:22:02.422Z,6.49
2017-11-26T05:24:39.202Z,6.44
2017-11-26T05:27:15.730Z,6.38
2017-11-26T05:29:49.015Z,6.26
2017-11-26T05:32:23.000Z,6.27
2017-11-26T05:35:04.811Z,6.32
2017-11-26T05:37:38.299Z,6.35
2017-11-26T05:40:11.512Z,6.33
2017-11-26T05:42:45.023Z,6.25
2017-11-26T05:45:21.424Z,6.22
2017-11-26T05:47:56.515Z,6.14
2017-11-26T05:50:29.213Z,6.16
2017-11-26T05:53:02.243Z,6.24
2017-11-26T05:55:39.513Z,6.17
2017-11-26T05:58:11.908Z,6.28
2017-11-26T06:00:51.042Z,6.20
2017-11-26T06:03:25.015Z,6.34
2017-11-26T06:05:58.431Z,6.25
2017-11-26T06:08:34.049Z,6.24
2017-11-26T06:11:06.552Z,6.31
2017-11-26T06:13:39.557Z,6.25
2017-11-26T06:16:16.469Z,6.22
2017-11-26T06:18:54.366Z,6.28
2017-11-26T06:21:27.480Z,6.22
2017-11-26T06:24:00.321Z,6.36
2017-11-26T06:26:35.386Z,6.22
2017-11-26T06:29:07.775Z,6.36
2017-11-26T06:31:41.989Z,6.32
2017-11-26T06:34:15.918Z,6.32
2017-11-26T06:36:51.812Z,6.44
2017-11-26T06:39:26.496Z,6.35
2017-11-26T06:41:58.412Z,6.36
2017-11-26T06:44:31.605Z,6.42
2017-11-26T06:49:31.078Z,6.41
2017-11-26T06:52:04.912Z,6.44
2017-11-26T06:54:37.824Z,6.53
2017-11-26T06:57:12.926Z,6.48
2017-11-26T06:59:47.156Z,6.48
2017-11-26T07:02:21.578Z,6.48
2017-11-26T07:04:54.555Z,6.57
2017-11-26T07:07:26.653Z,6.59
2017-11-26T07:10:01.298Z,6.57
2017-11-26T07:12:34.327Z,6.62
2017-11-26T07:15:21.219Z,6.55
2017-11-26T07:17:55.898Z,6.68
2017-11-26T07:20:28.811Z,6.68
2017-11-26T07:23:02.481Z,6.72
2017-11-26T07:25:36.391Z,6.82
2017-11-26T07:28:10.187Z,6.69
2017-11-26T07:30:46.282Z,6.76
2017-11-26T07:33:27.871Z,6.86
2017-11-26T07:36:02.779Z,6.84
2017-11-26T07:38:36.184Z,6.93
2017-11-26T07:41:11.401Z,6.89
2017-11-26T07:43:44.782Z,7.05
2017-11-26T07:46:20.796Z,6.98
2017-11-26T07:49:52.119Z,7.00
2017-11-26T07:52:24.500Z,7.22
2017-11-26T07:55:06.480Z,7.21
2017-11-26T07:57:46.280Z,7.13
2017-11-26T08:00:23.989Z,7.15
2017-11-26T08:02:56.817Z,7.03
2017-11-26T08:05:29.427Z,7.00
2017-11-26T08:08:02.545Z,7.16
2017-11-26T08:10:35.746Z,7.22
2017-11-26T08:13:11.858Z,7.26
2017-11-26T08:15:45.055Z,7.17
2017-11-26T08:18:18.362Z,7.16
2017-11-26T08:20:51.764Z,7.24
2017-11-26T08:23:26.254Z,7.24
2017-11-26T08:26:02.364Z,7.39
2017-11-26T08:28:35.041Z,7.54
2017-11-26T08:31:09.445Z,7.53
2017-11-26T08:33:43.040Z,7.35
2017-11-26T08:36:14.846Z,7.25
2017-11-26T08:38:49.947Z,7.25
2017-11-26T08:41:22.250Z,7.30
2017-11-26T08:43:56.844Z,7.51
2017-11-26T08:46:30.445Z,7.44
2017-11-26T08:49:04.953Z,7.37
2017-11-26T08:51:38.759Z,7.48
2017-11-26T08:54:11.969Z,7.41
2017-11-26T08:56:46.265Z,7.51
2017-11-26T08:59:21.675Z,7.50
2017-11-26T09:01:59.582Z,7.37
2017-11-26T09:04:32.620Z,7.50
2017-11-26T09:07:12.670Z,7.48
2017-11-26T09:09:45.778Z,7.48
2017-11-26T09:12:26.382Z,7.53
2017-11-26T09:15:01.187Z,7.53
2017-11-26T09:17:39.288Z,7.24
2017-11-26T09:20:13.684Z,7.38
2017-11-26T09:22:48.297Z,7.30
2017-11-26T09:25:25.818Z,7.30
2017-11-26T09:27:59.580Z,7.39
2017-11-26T09:30:35.506Z,7.35
2017-11-26T09:33:08.466Z,7.43
2017-11-26T09:35:43.362Z,7.54
2017-11-26T09:38:22.989Z,7.55
2017-11-26T09:41:02.858Z,7.52
2017-11-26T09:43:38.671Z,7.72
2017-11-26T09:46:14.654Z,7.79
2017-11-26T09:52:03.363Z,7.60
2017-11-26T09:54:38.074Z,7.52
2017-11-26T09:57:15.108Z,7.69
2017-11-26T09:59:51.422Z,7.72
2017-11-26T10:02:28.469Z,7.72
2017-11-26T10:05:02.803Z,7.64
2017-11-26T10:10:31.817Z,7.68
2017-11-26T10:13:13.209Z,7.90
2017-11-26T10:15:49.935Z,7.88
2017-11-26T10:18:29.851Z,7.99
2017-11-26T10:21:10.667Z,7.89
2017-11-26T10:23:48.921Z,7.80
2017-11-26T10:26:30.786Z,7.83
2017-11-26T10:29:09.353Z,7.97
2017-11-26T10:31:46.865Z,8.05
2017-11-26T10:34:27.351Z,8.02
2017-11-26T10:37:12.085Z,8.12
2017-11-26T10:39:55.566Z,8.14
2017-11-26T10:42:42.539Z,8.19
2017-11-26T10:45:46.452Z,8.29
2017-11-26T10:48:28.855Z,7.91
2017-11-26T10:51:06.951Z,7.97
2017-11-26T10:53:49.830Z,8.16
2017-11-26T10:56:57.519Z,8.07
2017-11-26T10:59:44.653Z,8.09
2017-11-26T11:02:24.342Z,8.35
2017-11-26T11:05:03.626Z,8.11
2017-11-26T11:07:44.831Z,8.21
2017-11-26T11:10:28.219Z,8.31
2017-11-26T11:13:09.937Z,8.00
2017-11-26T11:16:02.535Z,8.20
2017-11-26T11:18:49.077Z,8.32
2017-11-26T11:21:33.050Z,7.93
2017-11-26T11:24:18.347Z,8.17
2017-11-26T11:26:58.052Z,8.35
2017-11-26T11:29:36.867Z,8.13
2017-11-26T11:32:17.754Z,8.26
2017-11-26T11:34:58.880Z,8.33
2017-11-26T11:37:43.689Z,8.29
2017-11-26T11:43:11.871Z,8.48
2017-11-26T11:45:55.469Z,8.43
2017-11-26T11:48:40.041Z,8.26
2017-11-26T11:51:23.679Z,8.33
2017-11-26T11:54:05.673Z,8.48
2017-11-26T11:56:42.452Z,8.48
2017-11-26T11:59:29.976Z,8.56
2017-11-26T12:02:17.980Z,8.67
2017-11-26T12:05:01.278Z,8.61
2017-11-26T12:07:58.145Z,8.52
2017-11-26T12:10:41.353Z,8.23
2017-11-26T12:13:26.619Z,8.26
2017-11-26T12:16:07.281Z,8.51
2017-11-26T12:18:53.211Z,8.43
2017-11-26T12:21:37.992Z,8.54
2017-11-26T12:24:29.288Z,8.59
2017-11-26T12:27:14.195Z,8.80
2017-11-26T12:29:56.105Z,8.68
2017-11-26T12:32:35.917Z,8.40
2017-11-26T12:35:32.182Z,8.43
2017-11-26T12:38:19.911Z,8.64
2017-11-26T12:41:01.868Z,8.65
2017-11-26T12:43:44.317Z,8.78
2017-11-26T12:46:39.416Z,8.91
2017-11-26T12:49:41.319Z,9.02
2017-11-26T12:52:24.393Z,9.03
2017-11-26T12:55:13.943Z,9.24
2017-11-26T12:57:53.819Z,9.33
2017-11-26T13:00:36.822Z,9.47
2017-11-26T13:03:16.916Z,9.58
2017-11-26T13:06:04.607Z,9.58
2017-11-26T13:08:44.519Z,9.56
2017-11-26T13:11:33.622Z,9.55
2017-11-26T13:14:32.618Z,9.60
2017-11-26T13:17:16.220Z,9.84
2017-11-26T13:19:58.219Z,9.26
2017-11-26T13:22:38.296Z,9.19
2017-11-26T13:25:21.246Z,9.29
2017-11-26T13:28:09.214Z,9.62
2017-11-26T13:31:02.080Z,9.49
2017-11-26T13:33:52.504Z,9.44
2017-11-26T13:36:42.016Z,9.37
2017-11-26T13:39:21.843Z,9.74
2017-11-26T13:42:03.803Z,9.77
2017-11-26T13:47:44.207Z,9.31
2017-11-26T13:50:31.715Z,8.93
2017-11-26T13:53:17.112Z,9.08
2017-11-26T13:56:01.689Z,9.16
2017-11-26T13:58:55.100Z,8.85
2017-11-26T14:01:40.904Z,9.12
2017-11-26T14:04:25.559Z,8.87
2017-11-26T14:10:10.760Z,9.01
2017-11-26T14:12:51.940Z,8.94
2017-11-26T14:15:41.947Z,8.67
2017-11-26T14:18:32.906Z,8.77
2017-11-26T14:21:56.333Z,8.85
2017-11-26T14:24:50.711Z,8.78
2017-11-26T14:27:42.671Z,8.83
2017-11-26T14:30:24.228Z,8.91
2017-11-26T14:33:04.091Z,8.88
2017-11-26T14:35:51.306Z,8.79
2017-11-26T14:38:30.110Z,8.40
2017-11-26T14:41:08.115Z,8.74
2017-11-26T14:46:42.032Z,8.76
2017-11-26T14:49:27.735Z,8.99
2017-11-26T14:52:15.074Z,8.88
2017-11-26T14:55:05.139Z,8.75
2017-11-26T14:57:43.972Z,8.79
2017-11-26T15:03:20.447Z,8.79
2017-11-26T15:06:09.454Z,8.86
2017-11-26T15:08:46.662Z,8.89
2017-11-26T15:11:29.661Z,8.92
2017-11-26T15:14:13.522Z,8.84
2017-11-26T15:17:01.793Z,8.85
2017-11-26T15:19:41.541Z,8.71
2017-11-26T15:22:23.626Z,8.73
2017-11-26T15:25:08.759Z,8.83
2017-11-26T15:27:48.018Z,8.82
2017-11-26T15:30:30.860Z,8.75
2017-11-26T15:33:12.282Z,8.80
2017-11-26T15:35:55.359Z,8.86
2017-11-26T15:38:44.574Z,8.79
2017-11-26T15:41:29.866Z,8.83
2017-11-26T15:44:24.668Z,8.78
2017-11-26T15:47:06.566Z,8.76
2017-11-26T15:49:56.048Z,8.75
2017-11-26T15:52:43.658Z,8.66
2017-11-26T15:55:35.278Z,8.48
2017-11-26T15:58:23.338Z,8.46
2017-11-26T16:01:15.665Z,8.50
2017-11-26T16:04:00.923Z,8.48
2017-11-26T16:06:45.013Z,8.48
2017-11-26T16:09:37.365Z,8.42
2017-11-26T16:12:31.457Z,8.31
2017-11-26T16:18:27.744Z,8.32
2017-11-26T16:21:10.143Z,8.24
2017-11-26T16:23:52.304Z,8.21
2017-11-26T16:26:49.891Z,8.36
2017-11-26T16:29:40.105Z,8.39
2017-11-26T16:32:33.531Z,8.33
2017-11-26T16:38:03.024Z,8.33
2017-11-26T16:40:47.145Z,8.32
2017-11-26T16:43:37.232Z,8.39
2017-11-26T16:49:10.129Z,8.40
2017-11-26T16:51:52.835Z,8.38
2017-11-26T16:54:45.946Z,8.41
2017-11-26T16:57:31.010Z,8.26
2017-11-26T17:00:15.916Z,8.34
2017-11-26T17:02:57.932Z,8.33
2017-11-26T17:05:44.708Z,8.25
2017-11-26T17:08:30.894Z,8.29
2017-11-26T17:11:22.004Z,8.27
2017-11-26T17:14:04.525Z,8.32
2017-11-26T17:16:44.108Z,8.13
2017-11-26T17:19:28.005Z,8.15
2017-11-26T17:22:10.913Z,8.16
2017-11-26T17:24:51.214Z,8.02
2017-11-26T17:27:32.513Z,8.13
2017-11-26T17:30:27.132Z,8.10
2017-11-26T17:36:10.846Z,7.91
2017-11-26T17:41:42.483Z,7.82
2017-11-26T17:44:35.196Z,7.93
2017-11-26T17:47:17.992Z,8.02
2017-11-26T17:49:56.888Z,7.97
2017-11-26T17:52:39.997Z,7.88
2017-11-26T17:57:55.588Z,7.87
2017-11-26T18:00:37.584Z,8.02
2017-11-26T18:03:22.804Z,8.13
2017-11-26T18:06:06.720Z,8.12
2017-11-26T18:08:54.560Z,8.09
2017-11-26T18:11:41.717Z,8.16
2017-11-26T18:14:36.924Z,8.00
2017-11-26T18:20:13.126Z,7.94
2017-11-26T18:22:59.866Z,7.91
2017-11-26T18:25:46.911Z,8.03
2017-11-26T18:28:33.607Z,8.03
2017-11-26T18:31:14.938Z,7.94
2017-11-26T18:34:03.234Z,7.97
2017-11-26T18:36:46.759Z,7.81
2017-11-26T18:42:14.214Z,7.90
2017-11-26T18:44:51.637Z,7.85
2017-11-26T18:47:34.081Z,7.77
2017-11-26T18:50:11.050Z,7.88
2017-11-26T18:52:48.221Z,7.73
2017-11-26T18:55:27.113Z,7.85
2017-11-26T18:58:17.139Z,7.86
2017-11-26T19:01:14.469Z,7.84
2017-11-26T19:04:13.192Z,7.78
2017-11-26T19:07:05.689Z,7.75
2017-11-26T19:09:48.666Z,7.69
2017-11-26T19:12:33.059Z,7.75
2017-11-26T19:15:22.444Z,7.76
2017-11-26T19:18:03.752Z,7.77
2017-11-26T19:20:46.014Z,7.69
2017-11-26T19:23:30.322Z,7.60
2017-11-26T19:26:11.222Z,7.64
2017-11-26T19:28:50.601Z,7.69
2017-11-26T19:31:32.075Z,7.51
2017-11-26T19:34:09.109Z,7.64
2017-11-26T19:36:50.048Z,7.64
2017-11-26T19:39:31.054Z,7.54
2017-11-26T19:42:09.415Z,7.64
2017-11-26T19:45:06.643Z,7.64
2017-11-26T19:47:41.831Z,7.73
2017-11-26T19:50:21.973Z,7.57
2017-11-26T19:52:57.060Z,7.70
2017-11-26T19:55:34.695Z,7.77
2017-11-26T19:58:12.228Z,7.67
2017-11-26T20:00:53.323Z,7.63
2017-11-26T20:03:32.307Z,7.71
2017-11-26T20:06:14.078Z,7.68
2017-11-26T20:08:53.359Z,7.80
2017-11-26T20:11:37.709Z,7.82
2017-11-26T20:14:23.981Z,7.85
2017-11-26T20:17:21.047Z,7.83
2017-11-26T20:20:09.015Z,7.94
2017-11-26T20:22:57.413Z,7.97
2017-11-26T20:25:58.045Z,7.95
2017-11-26T20:28:43.974Z,7.95
2017-11-26T20:31:36.901Z,7.88
2017-11-26T20:34:32.775Z,8.06
2017-11-26T20:37:15.578Z,8.06
2017-11-26T20:39:58.244Z,8.04
2017-11-26T20:42:45.956Z,7.88
2017-11-26T20:45:36.488Z,7.99
2017-11-26T20:48:37.278Z,8.00
2017-11-26T20:51:35.140Z,8.01
2017-11-26T20:57:08.958Z,8.04
2017-11-26T20:59:51.873Z,8.12
2017-11-26T21:02:38.759Z,8.06
2017-11-26T21:05:23.765Z,8.13
2017-11-26T21:08:18.710Z,8.04
2017-11-26T21:11:13.640Z,8.11
2017-11-26T21:14:02.058Z,8.07
2017-11-26T21:16:50.486Z,8.08
2017-11-26T21:19:42.928Z,8.01
2017-11-26T21:22:26.818Z,8.04
2017-11-26T21:25:05.534Z,7.93
2017-11-26T21:27:49.817Z,7.96
2017-11-26T21:30:34.644Z,8.00
2017-11-26T21:33:15.484Z,7.95
2017-11-26T21:35:57.783Z,8.01
2017-11-26T21:41:19.733Z,7.91
2017-11-26T21:43:54.275Z,7.98
2017-11-26T21:46:30.055Z,8.02
2017-11-26T21:49:02.360Z,8.00
2017-11-26T21:51:37.027Z,8.05
2017-11-26T21:54:11.773Z,7.90
2017-11-26T21:56:45.662Z,7.75
2017-11-26T21:59:17.663Z,7.70
2017-11-26T22:01:52.457Z,8.01
2017-11-26T22:04:29.898Z,7.97
2017-11-26T22:07:05.656Z,8.07
2017-11-26T22:09:39.172Z,8.10
2017-11-26T22:12:13.956Z,8.18
2017-11-26T22:14:48.964Z,8.17
2017-11-26T22:17:21.672Z,8.27
2017-11-26T22:19:54.079Z,8.28
2017-11-26T22:25:10.589Z,8.10
2017-11-26T22:27:43.168Z,8.19
2017-11-26T22:30:30.388Z,8.06
2017-11-26T22:33:03.592Z,7.97
2017-11-26T22:35:38.460Z,8.08
2017-11-26T22:38:11.956Z,8.09
2017-11-26T22:40:48.753Z,7.98
2017-11-26T22:43:23.987Z,8.04
2017-11-26T22:45:58.217Z,8.08
2017-11-26T22:48:43.492Z,8.15
2017-11-26T22:51:18.076Z,8.25
2017-11-26T22:53:50.346Z,8.17
2017-11-26T22:56:23.960Z,8.30
2017-11-26T22:58:56.951Z,8.31
2017-11-26T23:01:30.339Z,8.29
2017-11-26T23:04:03.233Z,8.25
2017-11-26T23:06:38.171Z,8.25
2017-11-26T23:09:11.654Z,8.00
2017-11-26T23:11:47.963Z,8.18
2017-11-26T23:14:21.377Z,8.01
2017-11-26T23:16:55.693Z,7.81
2017-11-26T23:19:31.809Z,7.71
2017-11-26T23:22:06.406Z,7.64
2017-11-26T23:24:42.126Z,7.71
2017-11-26T23:27:14.188Z,7.63
2017-11-26T23:29:47.230Z,7.56
2017-11-26T23:32:20.515Z,7.35
2017-11-26T23:34:54.314Z,7.48
2017-11-26T23:37:27.021Z,7.61
2017-11-26T23:40:00.727Z,7.65
2017-11-26T23:42:38.174Z,7.66
2017-11-26T23:45:14.029Z,7.71
2017-11-26T23:47:46.226Z,7.77
2017-11-26T23:50:26.232Z,7.66
2017-11-26T23:53:05.514Z,7.62
2017-11-26T23:55:38.738Z,7.69
2017-11-26T23:58:11.829Z,7.58
